createdAt,value
2023-01-10T00:03:32.532Z,0.60
2023-01-10T00:08:37.340Z,0.80
2023-01-10T00:13:41.166Z,0.90
2023-01-10T00:18:44.569Z,0.83
2023-01-10T00:23:50.244Z,0.90
2023-01-10T00:28:54.030Z,1.00
2023-01-10T00:33:57.387Z,1.30
2023-01-10T00:39:02.292Z,1.67
2023-01-10T00:44:06.769Z,1.80
2023-01-10T00:49:12.036Z,1.47
2023-01-10T00:54:17.308Z,1.70
2023-01-10T00:59:20.708Z,2.07
2023-01-10T01:04:24.235Z,2.00
2023-01-10T01:09:29.118Z,1.93
2023-01-10T01:14:32.514Z,2.27
2023-01-10T01:19:35.914Z,2.50
2023-01-10T01:24:40.802Z,2.20
2023-01-10T01:29:44.271Z,1.83
2023-01-10T01:34:47.706Z,1.87
2023-01-10T01:39:52.585Z,1.10
2023-01-10T01:45:40.693Z,2.00
2023-01-10T01:50:48.430Z,2.30
2023-01-10T01:55:55.985Z,2.30
2023-01-10T02:00:59.842Z,2.30
2023-01-10T02:06:03.305Z,1.93
2023-01-10T02:11:11.698Z,2.07
2023-01-10T02:16:15.759Z,1.33
2023-01-10T02:21:48.400Z,1.20
2023-01-10T02:27:24.917Z,2.33
2023-01-10T02:32:48.005Z,2.63
2023-01-10T02:38:11.142Z,2.23
2023-01-10T02:43:18.688Z,2.60
2023-01-10T02:48:23.786Z,2.73
2023-01-10T02:53:31.081Z,2.73
2023-01-10T02:58:51.119Z,2.77
2023-01-10T03:04:06.205Z,2.83
2023-01-10T03:09:16.648Z,2.77
2023-01-10T03:14:24.000Z,3.20
2023-01-10T03:19:32.754Z,2.50
2023-01-10T03:24:41.418Z,3.00
2023-01-10T03:29:50.438Z,2.90
2023-01-10T03:34:55.943Z,2.30
2023-01-10T03:40:06.913Z,2.47
2023-01-10T03:45:13.717Z,1.83
2023-01-10T03:50:21.455Z,2.00
2023-01-10T03:55:27.993Z,1.83
2023-01-10T04:00:32.039Z,3.63
2023-01-10T04:05:37.073Z,3.63
2023-01-10T04:10:40.634Z,3.67
2023-01-10T04:15:44.131Z,3.67
2023-01-10T04:20:51.387Z,4.00
2023-01-10T04:25:55.460Z,4.43
2023-01-10T04:30:58.895Z,4.13
2023-01-10T04:36:03.791Z,4.57
2023-01-10T04:41:07.472Z,4.23
2023-01-10T04:46:10.911Z,4.60
2023-01-10T04:51:15.845Z,4.20
2023-01-10T04:56:22.436Z,4.57
2023-01-10T05:01:27.148Z,4.47
2023-01-10T05:06:32.082Z,4.93
2023-01-10T05:11:35.558Z,4.87
2023-01-10T05:16:39.006Z,5.57
2023-01-10T05:21:43.927Z,5.80
2023-01-10T05:26:47.368Z,5.60
2023-01-10T05:31:52.586Z,6.20
2023-01-10T05:36:57.421Z,6.53
2023-01-10T05:42:00.909Z,7.73
2023-01-10T05:47:04.328Z,7.27
2023-01-10T05:52:09.188Z,7.63
2023-01-10T05:57:12.943Z,7.93
2023-01-10T06:02:16.388Z,7.17
2023-01-10T06:07:21.214Z,6.93
2023-01-10T06:12:24.549Z,6.57
2023-01-10T06:17:27.979Z,4.10
2023-01-10T06:22:32.816Z,5.83
2023-01-10T06:27:36.212Z,6.57
2023-01-10T06:32:40.621Z,8.17
2023-01-10T06:37:45.461Z,5.97
2023-01-10T06:42:49.915Z,5.90
2023-01-10T06:47:53.308Z,6.13
2023-01-10T06:52:59.286Z,4.50
2023-01-10T06:58:04.796Z,2.97
2023-01-10T07:03:08.197Z,2.50
2023-01-10T07:08:13.092Z,2.50
2023-01-10T07:13:16.649Z,4.40
2023-01-10T07:18:20.075Z,5.10
2023-01-10T07:23:25.110Z,3.00
2023-01-10T07:28:28.531Z,4.60
2023-01-10T07:33:32.758Z,3.40
2023-01-10T07:38:38.986Z,3.20
2023-01-10T07:43:42.469Z,4.00
2023-01-10T07:48:47.109Z,4.27
2023-01-10T07:53:52.007Z,2.63
2023-01-10T07:58:55.435Z,1.50
2023-01-10T08:03:59.547Z,1.50
2023-01-10T08:09:05.989Z,1.70
2023-01-10T08:14:09.420Z,1.63
2023-01-10T08:19:17.009Z,2.00
2023-01-10T08:24:21.893Z,2.20
2023-01-10T08:29:25.319Z,1.20
2023-01-10T08:34:28.748Z,1.33
2023-01-10T08:39:35.547Z,2.67
2023-01-10T08:44:39.057Z,2.60
2023-01-10T08:49:42.461Z,2.20
2023-01-10T08:54:47.323Z,1.90
2023-01-10T08:59:50.726Z,2.20
2023-01-10T09:04:54.170Z,2.77
2023-01-10T09:09:58.978Z,3.50
2023-01-10T09:15:03.069Z,3.10
2023-01-10T09:20:10.205Z,4.60
2023-01-10T09:25:15.031Z,4.53
2023-01-10T09:30:19.081Z,8.47
2023-01-10T09:35:23.024Z,6.73
2023-01-10T09:40:41.310Z,6.23
2023-01-10T09:45:54.301Z,7.17
2023-01-10T09:51:14.525Z,6.53
2023-01-10T09:56:20.602Z,7.20
2023-01-10T10:01:29.533Z,6.27
2023-01-10T10:06:34.741Z,7.83
2023-01-10T10:11:58.263Z,7.00
2023-01-10T10:17:16.725Z,7.57
2023-01-10T10:22:28.378Z,7.40
2023-01-10T10:27:41.325Z,7.43
2023-01-10T10:33:18.648Z,8.17
2023-01-10T10:38:26.649Z,7.83
2023-01-10T10:43:35.732Z,7.87
2023-01-10T10:48:43.673Z,7.00
2023-01-10T10:53:48.454Z,7.20
2023-01-10T10:58:56.076Z,7.70
2023-01-10T11:04:02.906Z,4.57
2023-01-10T11:09:09.672Z,7.37
2023-01-10T11:14:14.976Z,7.57
2023-01-10T11:19:21.693Z,6.40
2023-01-10T11:24:29.312Z,6.40
2023-01-10T11:29:40.837Z,6.30
2023-01-10T11:34:53.883Z,6.37
2023-01-10T11:40:24.520Z,7.17
2023-01-10T11:45:32.824Z,6.67
2023-01-10T11:50:38.755Z,6.20
2023-01-10T11:55:49.457Z,5.80
2023-01-10T12:00:54.407Z,6.33
2023-01-10T12:06:01.370Z,4.00
2023-01-10T12:11:09.041Z,2.63
2023-01-10T12:16:25.415Z,1.63
2023-01-10T12:21:35.238Z,3.83
2023-01-10T12:26:39.108Z,3.70
2023-01-10T12:31:44.038Z,3.20
2023-01-10T12:37:00.739Z,1.83
2023-01-10T12:42:33.387Z,2.30
2023-01-10T12:47:50.948Z,2.03
2023-01-10T12:53:01.365Z,2.10
2023-01-10T12:58:06.822Z,1.40
2023-01-10T13:03:15.287Z,1.07
2023-01-10T13:08:22.595Z,1.10
2023-01-10T13:13:34.562Z,0.90
2023-01-10T13:18:39.420Z,0.93
2023-01-10T13:23:50.054Z,0.90
2023-01-10T13:28:56.302Z,1.13
2023-01-10T13:34:03.699Z,2.97
2023-01-10T13:39:09.523Z,2.13
2023-01-10T13:44:15.248Z,1.50
2023-01-10T13:49:44.658Z,3.43
2023-01-10T13:54:58.565Z,1.30
2023-01-10T14:00:23.970Z,3.50
2023-01-10T14:05:29.607Z,1.60
2023-01-10T14:10:34.556Z,1.10
2023-01-10T14:15:41.234Z,1.27
2023-01-10T14:20:56.696Z,1.30
2023-01-10T14:26:00.631Z,0.93
2023-01-10T14:31:06.043Z,1.10
2023-01-10T14:36:17.035Z,1.00
2023-01-10T14:41:23.198Z,1.10
2023-01-10T14:46:32.659Z,0.83
2023-01-10T14:51:37.683Z,1.40
2023-01-10T14:56:42.823Z,1.20
2023-01-10T15:01:51.071Z,1.40
2023-01-10T15:06:58.615Z,1.10
2023-01-10T15:12:05.267Z,1.33
2023-01-10T15:17:20.029Z,1.10
2023-01-10T15:22:31.751Z,0.90
2023-01-10T15:27:37.089Z,1.10
2023-01-10T15:32:41.850Z,1.03
2023-01-10T15:37:51.782Z,1.00
2023-01-10T15:43:12.727Z,0.90
2023-01-10T15:48:31.010Z,0.80
2023-01-10T15:54:03.461Z,0.93
2023-01-10T15:59:21.677Z,1.13
2023-01-10T16:04:25.516Z,1.43
2023-01-10T16:09:31.367Z,1.33
2023-01-10T16:14:35.062Z,1.27
2023-01-10T16:19:38.544Z,1.10
2023-01-10T16:24:44.773Z,1.13
2023-01-10T16:29:48.277Z,0.93
2023-01-10T16:34:51.854Z,1.20
2023-01-10T16:39:58.201Z,1.40
2023-01-10T16:45:01.686Z,1.30
2023-01-10T16:50:05.396Z,1.17
2023-01-10T16:55:16.583Z,1.70
2023-01-10T17:00:21.627Z,2.40
2023-01-10T17:05:26.610Z,2.10
2023-01-10T17:10:32.583Z,2.30
2023-01-10T17:15:36.785Z,2.73
2023-01-10T17:20:40.325Z,2.77
2023-01-10T17:25:47.376Z,2.47
2023-01-10T17:30:50.904Z,2.57
2023-01-10T17:35:56.200Z,2.20
2023-01-10T17:41:03.332Z,2.00
2023-01-10T17:46:07.472Z,2.67
2023-01-10T17:51:13.393Z,2.70
2023-01-10T17:56:18.532Z,2.70
2023-01-10T18:01:25.472Z,1.77
2023-01-10T18:06:29.255Z,2.27
2023-01-10T18:11:34.209Z,2.10
2023-01-10T18:16:37.819Z,4.57
2023-01-10T18:21:41.846Z,6.00
2023-01-10T18:26:48.506Z,5.53
2023-01-10T18:31:52.249Z,3.47
2023-01-10T18:36:56.664Z,3.93
2023-01-10T18:42:01.710Z,4.53
2023-01-10T18:47:05.896Z,2.93
2023-01-10T18:52:09.570Z,1.50
2023-01-10T18:57:14.874Z,1.73
2023-01-10T19:02:19.226Z,2.00
2023-01-10T19:07:23.287Z,2.40
2023-01-10T19:12:29.142Z,2.50
2023-01-10T19:17:33.538Z,2.83
2023-01-10T19:22:40.044Z,4.00
2023-01-10T19:27:46.126Z,2.50
2023-01-10T19:32:50.231Z,3.03
2023-01-10T19:37:54.406Z,3.50
2023-01-10T19:43:04.060Z,4.00
2023-01-10T19:48:09.020Z,3.63
2023-01-10T19:53:14.241Z,4.67
2023-01-10T19:58:21.951Z,4.20
2023-01-10T20:03:26.353Z,4.67
2023-01-10T20:08:32.117Z,4.83
2023-01-10T20:13:39.054Z,4.10
2023-01-10T20:18:43.955Z,4.47
2023-01-10T20:23:49.487Z,4.90
2023-01-10T20:28:56.657Z,4.90
2023-01-10T20:34:00.214Z,5.10
2023-01-10T20:39:04.649Z,4.47
2023-01-10T20:44:10.596Z,4.53
2023-01-10T20:49:14.601Z,4.40
2023-01-10T20:54:18.602Z,4.13
2023-01-10T20:59:25.898Z,3.63
2023-01-10T21:04:30.298Z,3.40
2023-01-10T21:09:33.961Z,3.43
2023-01-10T21:14:39.122Z,3.20
2023-01-10T21:19:42.618Z,3.80
2023-01-10T21:24:47.546Z,3.50
2023-01-10T21:29:52.813Z,4.37
2023-01-10T21:34:56.331Z,4.00
2023-01-10T21:39:59.928Z,3.80
2023-01-10T21:45:06.663Z,3.67
2023-01-10T21:50:13.326Z,3.80
2023-01-10T21:55:17.349Z,4.20
2023-01-10T22:00:23.261Z,4.30
2023-01-10T22:05:27.248Z,3.97
2023-01-10T22:10:30.863Z,4.20
2023-01-10T22:15:38.043Z,4.23
2023-01-10T22:20:45.963Z,4.37
2023-01-10T22:25:59.938Z,3.80
2023-01-10T22:31:06.046Z,4.20
2023-01-10T22:36:14.499Z,4.50
2023-01-10T22:41:20.004Z,4.60
2023-01-10T22:46:25.735Z,4.57
2023-01-10T22:51:31.041Z,4.60
2023-01-10T22:56:34.607Z,4.50
2023-01-10T23:01:40.247Z,4.37
2023-01-10T23:06:44.087Z,4.60
2023-01-10T23:11:47.540Z,4.67
2023-01-10T23:16:52.474Z,4.30
2023-01-10T23:21:56.225Z,4.30
2023-01-10T23:26:59.627Z,4.60
2023-01-10T23:32:19.816Z,4.80
2023-01-10T23:37:23.307Z,4.17
2023-01-10T23:42:26.774Z,4.57
2023-01-10T23:47:31.731Z,3.90
2023-01-10T23:52:35.210Z,4.10
2023-01-10T23:57:38.663Z,4.67
